sensor_id;sensor_type;location;lat;lon;timestamp;pressure;altitude;pressure_sealevel;temperature;humidity
70343;BME280;57767;42.068;24.752;2023-11-22T00:00:51;98239.00;;;10.20;63.92
70343;BME280;57767;42.068;24.752;2023-11-22T00:01:53;98243.88;;;10.23;64.61
70343;BME280;57767;42.068;24.752;2023-11-22T00:02:55;98242.84;;;10.24;64.90
70343;BME280;57767;42.068;24.752;2023-11-22T00:03:56;98243.88;;;10.23;63.77
70343;BME280;57767;42.068;24.752;2023-11-22T00:04:59;98241.66;;;10.20;64.16
70343;BME280;57767;42.068;24.752;2023-11-22T00:06:01;98250.97;;;10.23;64.21
70343;BME280;57767;42.068;24.752;2023-11-22T00:07:03;98252.72;;;10.29;64.01
70343;BME280;57767;42.068;24.752;2023-11-22T00:08:05;98242.84;;;10.24;63.98
70343;BME280;57767;42.068;24.752;2023-11-22T00:09:08;98241.34;;;10.10;64.18
70343;BME280;57767;42.068;24.752;2023-11-22T00:10:11;98242.69;;;10.19;64.00
70343;BME280;57767;42.068;24.752;2023-11-22T00:11:12;98230.78;;;10.10;64.73
70343;BME280;57767;42.068;24.752;2023-11-22T00:12:15;98233.00;;;10.13;64.17
70343;BME280;57767;42.068;24.752;2023-11-22T00:13:19;98240.03;;;10.19;64.17
70343;BME280;57767;42.068;24.752;2023-11-22T00:14:20;98221.38;;;10.14;64.10
70343;BME280;57767;42.068;24.752;2023-11-22T00:15:23;98230.28;;;10.20;63.83
70343;BME280;57767;42.068;24.752;2023-11-22T00:16:24;98230.66;;;10.23;63.43
70343;BME280;57767;42.068;24.752;2023-11-22T00:17:26;98232.50;;;10.23;63.35
70343;BME280;57767;42.068;24.752;2023-11-22T00:18:28;98225.81;;;10.20;63.95
70343;BME280;57767;42.068;24.752;2023-11-22T00:19:31;98213.72;;;10.13;63.67
70343;BME280;57767;42.068;24.752;2023-11-22T00:20:32;98202.19;;;10.07;63.34
70343;BME280;57767;42.068;24.752;2023-11-22T00:21:35;98215.69;;;10.17;63.40
70343;BME280;57767;42.068;24.752;2023-11-22T00:22:37;98214.88;;;10.17;63.78
70343;BME280;57767;42.068;24.752;2023-11-22T00:23:38;98225.59;;;10.22;63.45
70343;BME280;57767;42.068;24.752;2023-11-22T00:24:40;98215.88;;;10.16;64.07
70343;BME280;57767;42.068;24.752;2023-11-22T00:25:42;98234.75;;;10.19;63.98
70343;BME280;57767;42.068;24.752;2023-11-22T00:26:44;98237.59;;;10.18;63.54
70343;BME280;57767;42.068;24.752;2023-11-22T00:27:45;98238.81;;;10.15;63.65
70343;BME280;57767;42.068;24.752;2023-11-22T00:28:48;98241.47;;;10.15;64.01
70343;BME280;57767;42.068;24.752;2023-11-22T00:29:50;98232.03;;;10.07;63.23
70343;BME280;57767;42.068;24.752;2023-11-22T00:30:53;98236.66;;;10.12;63.83
70343;BME280;57767;42.068;24.752;2023-11-22T00:31:55;98231.00;;;10.09;64.18
70343;BME280;57767;42.068;24.752;2023-11-22T00:32:57;98234.88;;;10.06;64.07
70343;BME280;57767;42.068;24.752;2023-11-22T00:33:59;98234.66;;;10.07;64.51
70343;BME280;57767;42.068;24.752;2023-11-22T00:35:00;98231.81;;;10.09;63.89
70343;BME280;57767;42.068;24.752;2023-11-22T00:36:02;98222.28;;;10.08;64.34
70343;BME280;57767;42.068;24.752;2023-11-22T00:37:06;98222.28;;;10.08;64.08
70343;BME280;57767;42.068;24.752;2023-11-22T00:38:09;98227.13;;;10.11;63.44
70343;BME280;57767;42.068;24.752;2023-11-22T00:39:11;98221.84;;;10.11;63.44
70343;BME280;57767;42.068;24.752;2023-11-22T00:40:14;98220.81;;;10.12;63.68
70343;BME280;57767;42.068;24.752;2023-11-22T00:41:16;98221.84;;;10.11;62.91
70343;BME280;57767;42.068;24.752;2023-11-22T00:42:18;98218.25;;;10.05;63.60
70343;BME280;57767;42.068;24.752;2023-11-22T00:43:22;98227.56;;;10.08;63.25
70343;BME280;57767;42.068;24.752;2023-11-22T00:44:24;98226.97;;;10.06;63.43
70343;BME280;57767;42.068;24.752;2023-11-22T00:45:26;98221.91;;;10.04;62.81
70343;BME280;57767;42.068;24.752;2023-11-22T00:46:27;98224.53;;;10.04;63.63
70343;BME280;57767;42.068;24.752;2023-11-22T00:47:29;98224.31;;;10.06;63.52
70343;BME280;57767;42.068;24.752;2023-11-22T00:48:31;98220.66;;;10.07;63.23
70343;BME280;57767;42.068;24.752;2023-11-22T00:49:32;98226.53;;;10.09;64.27
70343;BME280;57767;42.068;24.752;2023-11-22T00:50:34;98218.84;;;10.07;64.10
70343;BME280;57767;42.068;24.752;2023-11-22T00:51:36;98223.91;;;10.09;63.51
70343;BME280;57767;42.068;24.752;2023-11-22T00:52:37;98221.63;;;10.13;63.68
70343;BME280;57767;42.068;24.752;2023-11-22T00:53:40;98221.84;;;10.11;63.64
70343;BME280;57767;42.068;24.752;2023-11-22T00:54:42;98230.34;;;10.13;63.53
70343;BME280;57767;42.068;24.752;2023-11-22T00:55:43;98228.50;;;10.14;63.90
70343;BME280;57767;42.068;24.752;2023-11-22T00:56:46;98228.75;;;10.12;63.63
70343;BME280;57767;42.068;24.752;2023-11-22T00:57:47;98233.63;;;10.09;63.92
70343;BME280;57767;42.068;24.752;2023-11-22T00:58:49;98230.63;;;10.05;62.69
70343;BME280;57767;42.068;24.752;2023-11-22T00:59:51;98230.03;;;10.03;63.12
70343;BME280;57767;42.068;24.752;2023-11-22T01:00:54;98229.81;;;10.04;64.08
70343;BME280;57767;42.068;24.752;2023-11-22T01:01:56;98229.22;;;10.02;63.86
70343;BME280;57767;42.068;24.752;2023-11-22T01:02:57;98223.59;;;9.99;64.87
70343;BME280;57767;42.068;24.752;2023-11-22T01:03:59;98221.19;;;9.97;64.42
70343;BME280;57767;42.068;24.752;2023-11-22T01:05:01;98215.69;;;9.99;64.11
70343;BME280;57767;42.068;24.752;2023-11-22T01:06:03;98215.47;;;10.00;65.00
70343;BME280;57767;42.068;24.752;2023-11-22T01:07:04;98219.06;;;10.06;64.43
70343;BME280;57767;42.068;24.752;2023-11-22T01:08:06;98224.13;;;10.07;64.03
70343;BME280;57767;42.068;24.752;2023-11-22T01:09:08;98222.72;;;10.05;63.99
70343;BME280;57767;42.068;24.752;2023-11-22T01:10:15;98214.59;;;10.06;63.42
70343;BME280;57767;42.068;24.752;2023-11-22T01:11:17;98209.41;;;10.00;63.49
70343;BME280;57767;42.068;24.752;2023-11-22T01:12:19;98202.28;;;10.00;63.73
70343;BME280;57767;42.068;24.752;2023-11-22T01:13:20;98198.84;;;10.00;63.76
70343;BME280;57767;42.068;24.752;2023-11-22T01:14:23;98199.66;;;10.00;65.25
70343;BME280;57767;42.068;24.752;2023-11-22T01:15:25;98199.72;;;9.94;65.40
70343;BME280;57767;42.068;24.752;2023-11-22T01:16:27;98186.38;;;9.89;64.73
70343;BME280;57767;42.068;24.752;2023-11-22T01:17:29;98197.22;;;9.99;64.78
70343;BME280;57767;42.068;24.752;2023-11-22T01:18:34;98202.94;;;9.96;64.36
70343;BME280;57767;42.068;24.752;2023-11-22T01:19:39;98209.41;;;10.00;64.79
70343;BME280;57767;42.068;24.752;2023-11-22T01:20:40;98194.44;;;9.94;64.52
70343;BME280;57767;42.068;24.752;2023-11-22T01:21:42;98200.69;;;9.99;65.44
70343;BME280;57767;42.068;24.752;2023-11-22T01:22:44;98213.88;;;9.99;65.60
70343;BME280;57767;42.068;24.752;2023-11-22T01:23:45;98218.13;;;10.00;65.46
70343;BME280;57767;42.068;24.752;2023-11-22T01:24:47;98206.97;;;9.98;64.74
70343;BME280;57767;42.068;24.752;2023-11-22T01:25:50;98221.91;;;10.04;65.02
70343;BME280;57767;42.068;24.752;2023-11-22T01:26:51;98221.31;;;10.02;64.83
70343;BME280;57767;42.068;24.752;2023-11-22T01:27:53;98225.22;;;10.00;65.17
70343;BME280;57767;42.068;24.752;2023-11-22T01:28:55;98224.41;;;9.99;65.00
70343;BME280;57767;42.068;24.752;2023-11-22T01:29:56;98226.25;;;9.99;65.42
70343;BME280;57767;42.068;24.752;2023-11-22T01:30:58;98220.09;;;9.87;65.07
70343;BME280;57767;42.068;24.752;2023-11-22T01:32:00;98227.44;;;9.78;65.64
70343;BME280;57767;42.068;24.752;2023-11-22T01:33:02;98220.69;;;9.64;65.92
70343;BME280;57767;42.068;24.752;2023-11-22T01:34:04;98214.38;;;9.65;65.70
70343;BME280;57767;42.068;24.752;2023-11-22T01:35:08;98210.38;;;9.62;65.84
70343;BME280;57767;42.068;24.752;2023-11-22T01:36:10;98209.34;;;9.63;66.86
70343;BME280;57767;42.068;24.752;2023-11-22T01:37:12;98200.06;;;9.61;66.66
70343;BME280;57767;42.068;24.752;2023-11-22T01:38:14;98216.59;;;9.68;67.20
70343;BME280;57767;42.068;24.752;2023-11-22T01:39:15;98207.06;;;9.67;66.65
70343;BME280;57767;42.068;24.752;2023-11-22T01:40:17;98211.34;;;9.68;67.36
70343;BME280;57767;42.068;24.752;2023-11-22T01:41:21;98200.63;;;9.63;67.11
70343;BME280;57767;42.068;24.752;2023-11-22T01:42:23;98210.69;;;9.73;66.87
70343;BME280;57767;42.068;24.752;2023-11-22T01:43:26;98203.81;;;9.72;67.08
70343;BME280;57767;42.068;24.752;2023-11-22T01:44:28;98204.41;;;9.74;67.10
70343;BME280;57767;42.068;24.752;2023-11-22T01:45:30;98209.88;;;9.72;67.48
70343;BME280;57767;42.068;24.752;2023-11-22T01:46:31;98218.44;;;9.67;68.10
70343;BME280;57767;42.068;24.752;2023-11-22T01:47:35;98211.03;;;9.58;68.32
70343;BME280;57767;42.068;24.752;2023-11-22T01:48:38;98214.09;;;9.55;68.03
70343;BME280;57767;42.068;24.752;2023-11-22T01:49:40;98197.91;;;9.51;67.64
70343;BME280;57767;42.068;24.752;2023-11-22T01:50:42;98204.06;;;9.63;67.33
70343;BME280;57767;42.068;24.752;2023-11-22T01:51:45;98200.41;;;9.64;67.51
70343;BME280;57767;42.068;24.752;2023-11-22T01:52:47;98201.22;;;9.65;66.81
70343;BME280;57767;42.068;24.752;2023-11-22T01:53:50;98206.88;;;9.68;67.77
70343;BME280;57767;42.068;24.752;2023-11-22T01:54:54;98203.00;;;9.71;68.40
70343;BME280;57767;42.068;24.752;2023-11-22T01:55:56;98199.13;;;9.74;68.00
70343;BME280;57767;42.068;24.752;2023-11-22T01:56:59;98188.84;;;9.65;67.98
70343;BME280;57767;42.068;24.752;2023-11-22T01:58:01;98191.84;;;9.69;67.81
70343;BME280;57767;42.068;24.752;2023-11-22T01:59:04;98187.69;;;9.61;67.89
70343;BME280;57767;42.068;24.752;2023-11-22T02:00:06;98185.19;;;9.66;67.92
70343;BME280;57767;42.068;24.752;2023-11-22T02:01:09;98182.34;;;9.68;68.07
70343;BME280;57767;42.068;24.752;2023-11-22T02:02:13;98177.66;;;9.70;67.17
70343;BME280;57767;42.068;24.752;2023-11-22T02:03:15;98179.41;;;9.76;67.19
70343;BME280;57767;42.068;24.752;2023-11-22T02:04:18;98169.31;;;9.73;67.22
70343;BME280;57767;42.068;24.752;2023-11-22T02:05:19;98181.19;;;9.82;68.04
70343;BME280;57767;42.068;24.752;2023-11-22T02:06:21;98160.31;;;9.62;67.94
70343;BME280;57767;42.068;24.752;2023-11-22T02:07:23;98164.97;;;9.60;68.59
70343;BME280;57767;42.068;24.752;2023-11-22T02:08:25;98163.63;;;9.51;68.49
70343;BME280;57767;42.068;24.752;2023-11-22T02:09:29;98153.56;;;9.48;68.35
70343;BME280;57767;42.068;24.752;2023-11-22T02:10:31;98165.41;;;9.57;68.49
70343;BME280;57767;42.068;24.752;2023-11-22T02:11:33;98177.66;;;9.70;67.47
70343;BME280;57767;42.068;24.752;2023-11-22T02:12:35;98170.19;;;9.67;68.25
70343;BME280;57767;42.068;24.752;2023-11-22T02:13:37;98178.59;;;9.76;68.52
70343;BME280;57767;42.068;24.752;2023-11-22T02:14:38;98184.25;;;9.79;68.37
70343;BME280;57767;42.068;24.752;2023-11-22T02:15:40;98181.59;;;9.79;68.09
70343;BME280;57767;42.068;24.752;2023-11-22T02:16:42;98171.06;;;9.79;67.54
70343;BME280;57767;42.068;24.752;2023-11-22T02:17:43;98175.53;;;9.79;67.13
70343;BME280;57767;42.068;24.752;2023-11-22T02:18:47;98171.88;;;9.80;67.37
70343;BME280;57767;42.068;24.752;2023-11-22T02:19:49;98172.25;;;9.83;68.25
70343;BME280;57767;42.068;24.752;2023-11-22T02:20:50;98162.66;;;9.70;68.03
70343;BME280;57767;42.068;24.752;2023-11-22T02:21:52;98177.13;;;9.80;67.96
70343;BME280;57767;42.068;24.752;2023-11-22T02:22:54;98187.25;;;9.83;67.54
70343;BME280;57767;42.068;24.752;2023-11-22T02:23:56;98172.47;;;9.82;67.15
70343;BME280;57767;42.068;24.752;2023-11-22T02:24:58;98162.78;;;9.76;67.44
70343;BME280;57767;42.068;24.752;2023-11-22T02:26:00;98179.94;;;9.85;68.11
70343;BME280;57767;42.068;24.752;2023-11-22T02:27:02;98177.09;;;9.86;67.81
70343;BME280;57767;42.068;24.752;2023-11-22T02:28:05;98176.94;;;9.81;67.62
70343;BME280;57767;42.068;24.752;2023-11-22T02:29:06;98182.78;;;9.83;67.91
70343;BME280;57767;42.068;24.752;2023-11-22T02:30:08;98181.19;;;9.82;67.90
70343;BME280;57767;42.068;24.752;2023-11-22T02:31:10;98171.75;;;9.75;68.35
70343;BME280;57767;42.068;24.752;2023-11-22T02:32:12;98166.00;;;9.59;68.13
70343;BME280;57767;42.068;24.752;2023-11-22T02:33:14;98152.25;;;9.57;68.33
70343;BME280;57767;42.068;24.752;2023-11-22T02:34:15;98180.88;;;9.72;68.36
70343;BME280;57767;42.068;24.752;2023-11-22T02:35:17;98191.00;;;9.75;68.10
70343;BME280;57767;42.068;24.752;2023-11-22T02:36:19;98185.94;;;9.74;67.50
70343;BME280;57767;42.068;24.752;2023-11-22T02:37:20;98179.47;;;9.69;67.61
70343;BME280;57767;42.068;24.752;2023-11-22T02:38:22;98184.31;;;9.73;68.11
70343;BME280;57767;42.068;24.752;2023-11-22T02:39:29;98180.66;;;9.74;67.75
70343;BME280;57767;42.068;24.752;2023-11-22T02:40:34;98173.78;;;9.73;67.66
70343;BME280;57767;42.068;24.752;2023-11-22T02:41:36;98184.25;;;9.79;67.73
70343;BME280;57767;42.068;24.752;2023-11-22T02:42:38;98181.00;;;9.77;67.64
70343;BME280;57767;42.068;24.752;2023-11-22T02:43:39;98188.72;;;9.79;68.13
70343;BME280;57767;42.068;24.752;2023-11-22T02:44:42;98185.78;;;9.68;68.15
70343;BME280;57767;42.068;24.752;2023-11-22T02:45:44;98188.84;;;9.65;68.43
70343;BME280;57767;42.068;24.752;2023-11-22T02:46:46;98179.78;;;9.61;68.72
70343;BME280;57767;42.068;24.752;2023-11-22T02:47:48;98186.81;;;9.67;68.65
70343;BME280;57767;42.068;24.752;2023-11-22T02:48:50;98179.69;;;9.68;68.96
70343;BME280;57767;42.068;24.752;2023-11-22T02:49:52;98166.13;;;9.64;68.34
70343;BME280;57767;42.068;24.752;2023-11-22T02:50:54;98170.56;;;9.70;66.93
70343;BME280;57767;42.068;24.752;2023-11-22T02:51:56;98156.41;;;9.65;67.10
70343;BME280;57767;42.068;24.752;2023-11-22T02:52:58;98162.06;;;9.68;67.14
70343;BME280;57767;42.068;24.752;2023-11-22T02:54:00;98166.69;;;9.73;67.61
70343;BME280;57767;42.068;24.752;2023-11-22T02:55:02;98178.03;;;9.74;66.53
70343;BME280;57767;42.068;24.752;2023-11-22T02:56:04;98175.97;;;9.76;67.71
70343;BME280;57767;42.068;24.752;2023-11-22T02:57:06;98187.69;;;9.80;68.57
70343;BME280;57767;42.068;24.752;2023-11-22T02:58:08;98199.84;;;9.81;68.06
70343;BME280;57767;42.068;24.752;2023-11-22T02:59:09;98208.41;;;9.76;67.63
70343;BME280;57767;42.068;24.752;2023-11-22T03:00:15;98216.78;;;9.73;67.27
70343;BME280;57767;42.068;24.752;2023-11-22T03:01:17;98214.56;;;9.70;67.80
70343;BME280;57767;42.068;24.752;2023-11-22T03:02:19;98209.28;;;9.70;68.37
70343;BME280;57767;42.068;24.752;2023-11-22T03:03:20;98199.75;;;9.69;68.34
70343;BME280;57767;42.068;24.752;2023-11-22T03:04:22;98202.19;;;9.70;68.29
70343;BME280;57767;42.068;24.752;2023-11-22T03:05:25;98195.91;;;9.72;67.99
70343;BME280;57767;42.068;24.752;2023-11-22T03:06:26;98200.34;;;9.71;67.67
70343;BME280;57767;42.068;24.752;2023-11-22T03:07:29;98183.78;;;9.64;67.84
70343;BME280;57767;42.068;24.752;2023-11-22T03:08:31;98186.22;;;9.65;67.63
70343;BME280;57767;42.068;24.752;2023-11-22T03:09:34;98192.44;;;9.71;68.10
70343;BME280;57767;42.068;24.752;2023-11-22T03:10:36;98176.13;;;9.62;68.21
70343;BME280;57767;42.068;24.752;2023-11-22T03:11:37;98173.50;;;9.62;67.76
70343;BME280;57767;42.068;24.752;2023-11-22T03:12:40;98189.59;;;9.73;68.13
70343;BME280;57767;42.068;24.752;2023-11-22T03:13:41;98190.63;;;9.72;68.34
70343;BME280;57767;42.068;24.752;2023-11-22T03:14:46;98187.97;;;9.72;67.65
70343;BME280;57767;42.068;24.752;2023-11-22T03:15:47;98191.84;;;9.69;68.29
70343;BME280;57767;42.068;24.752;2023-11-22T03:16:49;98193.47;;;9.70;68.40
70343;BME280;57767;42.068;24.752;2023-11-22T03:17:51;98192.06;;;9.67;67.98
70343;BME280;57767;42.068;24.752;2023-11-22T03:18:52;98190.25;;;9.68;68.34
70343;BME280;57767;42.068;24.752;2023-11-22T03:19:56;98190.03;;;9.69;68.13
70343;BME280;57767;42.068;24.752;2023-11-22T03:20:58;98170.38;;;9.65;68.05
70343;BME280;57767;42.068;24.752;2023-11-22T03:22:01;98171.19;;;9.66;68.36
70343;BME280;57767;42.068;24.752;2023-11-22T03:23:05;98170.38;;;9.65;68.58
70343;BME280;57767;42.068;24.752;2023-11-22T03:24:08;98158.91;;;9.60;68.01
70343;BME280;57767;42.068;24.752;2023-11-22T03:25:10;98165.94;;;9.66;68.64
70343;BME280;57767;42.068;24.752;2023-11-22T03:26:12;98167.63;;;9.60;68.68
70343;BME280;57767;42.068;24.752;2023-11-22T03:27:14;98160.88;;;9.46;69.23
70343;BME280;57767;42.068;24.752;2023-11-22T03:28:16;98153.88;;;9.33;69.25
70343;BME280;57767;42.068;24.752;2023-11-22T03:29:19;98151.00;;;9.17;69.52
70343;BME280;57767;42.068;24.752;2023-11-22T03:30:20;98151.19;;;9.15;69.75
70343;BME280;57767;42.068;24.752;2023-11-22T03:31:22;98152.00;;;9.16;70.08
70343;BME280;57767;42.068;24.752;2023-11-22T03:32:23;98142.44;;;9.21;69.82
70343;BME280;57767;42.068;24.752;2023-11-22T03:33:25;98144.88;;;9.23;70.17
70343;BME280;57767;42.068;24.752;2023-11-22T03:34:27;98141.34;;;9.29;69.69
70343;BME280;57767;42.068;24.752;2023-11-22T03:35:29;98146.19;;;9.32;69.78
70343;BME280;57767;42.068;24.752;2023-11-22T03:36:31;98136.50;;;9.26;70.42
70343;BME280;57767;42.068;24.752;2023-11-22T03:37:33;98145.78;;;9.35;70.42
70343;BME280;57767;42.068;24.752;2023-11-22T03:38:35;98156.31;;;9.35;71.06
70343;BME280;57767;42.068;24.752;2023-11-22T03:39:37;98161.38;;;9.37;70.93
70343;BME280;57767;42.068;24.752;2023-11-22T03:40:38;98159.78;;;9.29;71.16
70343;BME280;57767;42.068;24.752;2023-11-22T03:41:42;98168.09;;;9.32;71.38
70343;BME280;57767;42.068;24.752;2023-11-22T03:42:44;98179.25;;;9.28;71.67
70343;BME280;57767;42.068;24.752;2023-11-22T03:43:45;98171.94;;;9.30;71.12
70343;BME280;57767;42.068;24.752;2023-11-22T03:44:47;98171.94;;;9.30;71.01
70343;BME280;57767;42.068;24.752;2023-11-22T03:45:48;98170.50;;;9.34;70.99
70343;BME280;57767;42.068;24.752;2023-11-22T03:46:51;98169.84;;;9.39;70.67
70343;BME280;57767;42.068;24.752;2023-11-22T03:47:52;98173.06;;;9.41;70.77
70343;BME280;57767;42.068;24.752;2023-11-22T03:48:54;98173.44;;;9.44;70.43
70343;BME280;57767;42.068;24.752;2023-11-22T03:49:56;98170.59;;;9.46;70.65
70343;BME280;57767;42.068;24.752;2023-11-22T03:50:57;98174.03;;;9.46;70.82
70343;BME280;57767;42.068;24.752;2023-11-22T03:51:59;98172.81;;;9.49;70.26
70343;BME280;57767;42.068;24.752;2023-11-22T03:53:01;98175.19;;;9.50;70.22
70343;BME280;57767;42.068;24.752;2023-11-22T03:54:02;98165.72;;;9.49;70.08
70343;BME280;57767;42.068;24.752;2023-11-22T03:55:04;98183.47;;;9.54;70.38
70343;BME280;57767;42.068;24.752;2023-11-22T03:56:06;98181.44;;;9.56;69.65
70343;BME280;57767;42.068;24.752;2023-11-22T03:57:08;98172.13;;;9.53;69.48
70343;BME280;57767;42.068;24.752;2023-11-22T03:58:09;98173.09;;;9.59;69.97
70343;BME280;57767;42.068;24.752;2023-11-22T03:59:11;98179.78;;;9.61;69.43
70343;BME280;57767;42.068;24.752;2023-11-22T04:00:14;98185.47;;;9.58;70.17
70343;BME280;57767;42.068;24.752;2023-11-22T04:01:16;98190.00;;;9.51;70.40
70343;BME280;57767;42.068;24.752;2023-11-22T04:02:17;98184.16;;;9.49;70.37
70343;BME280;57767;42.068;24.752;2023-11-22T04:03:19;98182.38;;;9.43;71.08
70343;BME280;57767;42.068;24.752;2023-11-22T04:04:22;98188.84;;;9.47;70.06
70343;BME280;57767;42.068;24.752;2023-11-22T04:05:23;98192.47;;;9.46;70.16
70343;BME280;57767;42.068;24.752;2023-11-22T04:06:25;98196.13;;;9.45;70.35
70343;BME280;57767;42.068;24.752;2023-11-22T04:07:27;98206.50;;;9.40;70.45
70343;BME280;57767;42.068;24.752;2023-11-22T04:08:29;98205.09;;;9.38;70.52
70343;BME280;57767;42.068;24.752;2023-11-22T04:09:30;98211.56;;;9.42;70.46
70343;BME280;57767;42.068;24.752;2023-11-22T04:10:32;98207.09;;;9.42;70.50
70343;BME280;57767;42.068;24.752;2023-11-22T04:11:34;98207.31;;;9.41;70.82
70343;BME280;57767;42.068;24.752;2023-11-22T04:12:36;98189.53;;;9.36;70.29
70343;BME280;57767;42.068;24.752;2023-11-22T04:13:39;98195.53;;;9.43;70.17
70343;BME280;57767;42.068;24.752;2023-11-22T04:14:41;98192.91;;;9.43;69.87
70343;BME280;57767;42.068;24.752;2023-11-22T04:15:43;98178.72;;;9.44;70.43
70343;BME280;57767;42.068;24.752;2023-11-22T04:16:45;98180.72;;;9.49;70.47
70343;BME280;57767;42.068;24.752;2023-11-22T04:17:47;98175.66;;;9.47;69.95
70343;BME280;57767;42.068;24.752;2023-11-22T04:18:49;98175.66;;;9.47;70.36
70343;BME280;57767;42.068;24.752;2023-11-22T04:19:51;98183.56;;;9.47;70.31
70343;BME280;57767;42.068;24.752;2023-11-22T04:20:52;98184.59;;;9.46;70.54
70343;BME280;57767;42.068;24.752;2023-11-22T04:21:54;98195.53;;;9.43;71.08
70343;BME280;57767;42.068;24.752;2023-11-22T04:22:56;98190.56;;;9.35;71.19
70343;BME280;57767;42.068;24.752;2023-11-22T04:23:58;98189.31;;;9.38;70.55
70343;BME280;57767;42.068;24.752;2023-11-22T04:25:00;98198.19;;;9.43;70.62
70343;BME280;57767;42.068;24.752;2023-11-22T04:26:02;98174.88;;;9.40;70.87
70343;BME280;57767;42.068;24.752;2023-11-22T04:27:04;98175.50;;;9.42;70.49
70343;BME280;57767;42.068;24.752;2023-11-22T04:28:06;98188.44;;;9.44;70.67
70343;BME280;57767;42.068;24.752;2023-11-22T04:29:10;98206.50;;;9.40;69.57
70343;BME280;57767;42.068;24.752;2023-11-22T04:30:12;98203.72;;;9.35;70.49
70343;BME280;57767;42.068;24.752;2023-11-22T04:31:18;98205.38;;;9.29;70.40
70343;BME280;57767;42.068;24.752;2023-11-22T04:32:20;98208.19;;;9.34;70.72
70343;BME280;57767;42.068;24.752;2023-11-22T04:33:24;98199.09;;;9.30;70.83
70343;BME280;57767;42.068;24.752;2023-11-22T04:34:26;98222.09;;;9.42;70.43
70343;BME280;57767;42.068;24.752;2023-11-22T04:35:28;98208.78;;;9.37;69.98
70343;BME280;57767;42.068;24.752;2023-11-22T04:36:30;98210.38;;;9.38;69.41
70343;BME280;57767;42.068;24.752;2023-11-22T04:37:32;98199.41;;;9.41;68.82
70343;BME280;57767;42.068;24.752;2023-11-22T04:38:33;98190.50;;;9.42;68.90
70343;BME280;57767;42.068;24.752;2023-11-22T04:39:36;98167.56;;;9.24;69.09
70343;BME280;57767;42.068;24.752;2023-11-22T04:40:37;98198.81;;;9.39;69.53
70343;BME280;57767;42.068;24.752;2023-11-22T04:41:39;98221.69;;;9.45;68.94
70343;BME280;57767;42.068;24.752;2023-11-22T04:42:41;98223.50;;;9.44;68.95
70343;BME280;57767;42.068;24.752;2023-11-22T04:43:42;98217.81;;;9.47;68.41
70343;BME280;57767;42.068;24.752;2023-11-22T04:44:46;98205.88;;;9.45;68.46
70343;BME280;57767;42.068;24.752;2023-11-22T04:45:47;98221.63;;;9.51;68.12
70343;BME280;57767;42.068;24.752;2023-11-22T04:46:49;98221.84;;;9.50;68.75
70343;BME280;57767;42.068;24.752;2023-11-22T04:47:51;98230.22;;;9.40;69.40
70343;BME280;57767;42.068;24.752;2023-11-22T04:48:53;98244.81;;;9.43;68.38
70343;BME280;57767;42.068;24.752;2023-11-22T04:49:55;98246.47;;;9.37;68.02
70343;BME280;57767;42.068;24.752;2023-11-22T04:50:56;98246.47;;;9.37;67.95
70343;BME280;57767;42.068;24.752;2023-11-22T04:51:58;98243.88;;;9.30;67.65
70343;BME280;57767;42.068;24.752;2023-11-22T04:53:00;98252.38;;;9.32;67.51
70343;BME280;57767;42.068;24.752;2023-11-22T04:54:05;98249.53;;;9.34;67.61
70343;BME280;57767;42.068;24.752;2023-11-22T04:55:07;98248.31;;;9.37;67.71
70343;BME280;57767;42.068;24.752;2023-11-22T04:56:09;98234.16;;;9.31;67.08
70343;BME280;57767;42.068;24.752;2023-11-22T04:57:11;98249.47;;;9.41;68.06
70343;BME280;57767;42.068;24.752;2023-11-22T04:58:12;98235.34;;;9.35;67.55
70343;BME280;57767;42.068;24.752;2023-11-22T04:59:14;98243.19;;;9.42;67.26
70343;BME280;57767;42.068;24.752;2023-11-22T05:00:17;98241.34;;;9.42;66.74
70343;BME280;57767;42.068;24.752;2023-11-22T05:01:18;98245.56;;;9.50;66.84
70343;BME280;57767;42.068;24.752;2023-11-22T05:02:23;98253.09;;;9.46;66.43
70343;BME280;57767;42.068;24.752;2023-11-22T05:03:24;98248.97;;;9.50;66.48
70343;BME280;57767;42.068;24.752;2023-11-22T05:04:26;98256.47;;;9.53;67.02
70343;BME280;57767;42.068;24.752;2023-11-22T05:05:28;98256.03;;;9.56;67.95
70343;BME280;57767;42.068;24.752;2023-11-22T05:06:30;98268.78;;;9.59;67.88
70343;BME280;57767;42.068;24.752;2023-11-22T05:07:31;98268.00;;;9.59;66.41
70343;BME280;57767;42.068;24.752;2023-11-22T05:08:33;98264.13;;;9.61;66.32
70343;BME280;57767;42.068;24.752;2023-11-22T05:09:36;98268.38;;;9.62;66.79
70343;BME280;57767;42.068;24.752;2023-11-22T05:10:37;98264.94;;;9.62;66.00
70343;BME280;57767;42.068;24.752;2023-11-22T05:11:39;98262.84;;;9.64;66.10
70343;BME280;57767;42.068;24.752;2023-11-22T05:12:43;98274.16;;;9.71;66.44
70343;BME280;57767;42.068;24.752;2023-11-22T05:13:46;98268.94;;;9.64;67.10
70343;BME280;57767;42.068;24.752;2023-11-22T05:14:47;98277.19;;;9.75;66.29
70343;BME280;57767;42.068;24.752;2023-11-22T05:15:49;98266.47;;;9.69;66.55
70343;BME280;57767;42.068;24.752;2023-11-22T05:16:52;98275.94;;;9.77;66.05
70343;BME280;57767;42.068;24.752;2023-11-22T05:17:53;98273.97;;;9.73;65.42
70343;BME280;57767;42.068;24.752;2023-11-22T05:18:55;98276.13;;;9.76;64.86
70343;BME280;57767;42.068;24.752;2023-11-22T05:19:57;98278.13;;;9.80;64.84
70343;BME280;57767;42.068;24.752;2023-11-22T05:20:58;98278.94;;;9.81;65.47
70343;BME280;57767;42.068;24.752;2023-11-22T05:22:00;98273.06;;;9.79;65.23
70343;BME280;57767;42.068;24.752;2023-11-22T05:23:02;98262.19;;;9.75;65.73
70343;BME280;57767;42.068;24.752;2023-11-22T05:24:04;98272.44;;;9.83;66.56
70343;BME280;57767;42.068;24.752;2023-11-22T05:25:06;98278.53;;;9.84;66.10
70343;BME280;57767;42.068;24.752;2023-11-22T05:26:08;98275.44;;;9.87;67.09
70343;BME280;57767;42.068;24.752;2023-11-22T05:27:11;98258.44;;;9.83;66.81
70343;BME280;57767;42.068;24.752;2023-11-22T05:28:13;98268.69;;;9.91;66.61